Terminal Aerodrome Forecast
Issued by NWS Bismarck, ND

Home | Current Version | Previous Version | Graphics & Text | Print | Product List | Glossary On
Versions: 1 2 3 4 5 6 7 8 9 10 11 12 13 14 15 16 17 18 19 20 21 22
542
FTUS43 KBIS 251122
TAFBIS
TAF
KBIS 251122Z 2512/2612 25004KT P6SM -SN BKN035 BKN080
     FM251300 VRB03KT 3SM -SN OVC030
     FM251500 31004KT P6SM VCSH OVC030
     FM260200 16007KT P6SM VCSH BKN025
     FM260400 21005KT 5SM -SN OVC020
     FM260900 34012G20KT P6SM SCT015=

USA.gov is the U.S. government's official web portal to all federal, state and local government web resources and services.